Time;durP1;ratioP1;P1;durP2;ratioP2;P2;SDS_P1;SDS_P2;PMS_P1;PMS_P2;Temp;Humidity;BMP_temperature;BMP_pressure;BME280_temperature;BME280_humidity;BME280_pressure;Samples;Min_cycle;Max_cycle;Signal;HPM_P1;HPM_P2
2023/02/16 00:01:54;;;;;;;;;;;2.80;99.90;;;;;;5064137;28;19919;-66
2023/02/16 00:04:29;;;;;;;;;;;2.70;99.90;;;;;;5056618;28;19913;-66
2023/02/16 00:06:55;;;;;;;;;;;2.70;99.90;;;;;;5066009;28;19916;-65
2023/02/16 00:09:22;;;;;;;;;;;2.70;99.90;;;;;;5064163;28;20010;-67
2023/02/16 00:14:36;;;;;;;;;;;2.60;99.90;;;;;;5064211;28;20352;-68
2023/02/16 00:17:02;;;;;;;;;;;2.60;99.90;;;;;;5061369;28;19931;-67
2023/02/16 00:19:29;;;;;;;;;;;2.70;99.90;;;;;;5056770;28;19913;-64
2023/02/16 00:21:58;;;;;;;;;;;2.60;99.90;;;;;;5057311;28;19947;-65
2023/02/16 00:24:25;;;;;;;;;;;2.70;99.90;;;;;;5064589;28;20332;-65
2023/02/16 00:26:51;;;;;;;;;;;2.60;99.90;;;;;;5057756;28;19928;-65
2023/02/16 00:29:16;;;;;;;;;;;2.70;99.90;;;;;;5066372;28;19959;-66
2023/02/16 00:31:42;;;;;;;;;;;2.80;99.90;;;;;;5061673;28;19947;-65
2023/02/16 00:34:26;;;;;;;;;;;2.80;99.90;;;;;;5064670;28;19916;-65
2023/02/16 00:36:51;;;;;;;;;;;2.90;99.90;;;;;;5066198;28;19913;-65
2023/02/16 00:39:17;;;;;;;;;;;2.80;99.90;;;;;;5070156;28;20019;-66
2023/02/16 00:41:52;;;;;;;;;;;2.70;99.90;;;;;;5070392;28;19920;-65
2023/02/16 00:44:20;;;;;;;;;;;2.70;99.90;;;;;;5067980;28;20341;-65
2023/02/16 00:46:46;;;;;;;;;;;2.60;99.90;;;;;;5064444;28;19916;-65
2023/02/16 00:49:18;;;;;;;;;;;2.60;99.90;;;;;;5063460;28;19920;-64
2023/02/16 00:51:44;;;;;;;;;;;2.40;99.90;;;;;;5065468;28;20400;-65
2023/02/16 00:54:09;;;;;;;;;;;2.30;99.90;;;;;;5071053;28;19913;-65
2023/02/16 00:56:35;;;;;;;;;;;2.20;99.90;;;;;;5059764;28;20385;-65
2023/02/16 00:59:01;;;;;;;;;;;2.20;99.90;;;;;;5069160;28;19963;-65
2023/02/16 01:01:29;;;;;;;;;;;2.20;99.90;;;;;;5063129;28;20366;-66
2023/02/16 01:03:55;;;;;;;;;;;2.20;99.90;;;;;;5064132;28;21146;-66
2023/02/16 01:11:59;;;;;;;;;;;2.30;99.90;;;;;;5069530;28;19919;-64
2023/02/16 01:14:25;;;;;;;;;;;2.10;99.90;;;;;;5069337;28;19912;-64
2023/02/16 01:16:50;;;;;;;;;;;2.00;99.90;;;;;;5063245;28;19936;-64
2023/02/16 01:19:16;;;;;;;;;;;2.10;99.90;;;;;;5074519;28;19919;-65
2023/02/16 01:21:42;;;;;;;;;;;2.10;99.90;;;;;;5065672;28;19912;-65
2023/02/16 01:24:07;;;;;;;;;;;2.10;99.90;;;;;;5065075;28;20300;-65
2023/02/16 01:26:36;;;;;;;;;;;2.10;99.90;;;;;;5058849;28;20387;-64
2023/02/16 01:29:02;;;;;;;;;;;2.00;99.90;;;;;;5059542;28;19971;-64
2023/02/16 01:31:27;;;;;;;;;;;2.00;99.90;;;;;;5061792;28;19940;-66
2023/02/16 01:33:53;;;;;;;;;;;2.00;99.90;;;;;;5071424;28;19920;-65
2023/02/16 01:36:21;;;;;;;;;;;2.00;99.90;;;;;;5068893;28;20015;-66
2023/02/16 01:38:46;;;;;;;;;;;1.90;99.90;;;;;;5068694;28;19937;-65
2023/02/16 01:41:23;;;;;;;;;;;1.90;99.90;;;;;;5075651;28;19912;-65
2023/02/16 01:43:54;;;;;;;;;;;1.80;99.90;;;;;;5064218;28;19916;-72
2023/02/16 01:46:22;;;;;;;;;;;1.70;99.90;;;;;;5072232;28;19939;-64
2023/02/16 01:48:47;;;;;;;;;;;1.70;99.90;;;;;;5073180;28;19966;-65
2023/02/16 01:51:25;;;;;;;;;;;1.60;99.90;;;;;;5078080;28;19916;-65
2023/02/16 01:53:52;;;;;;;;;;;1.70;99.90;;;;;;5069379;28;19931;-65
2023/02/16 01:56:26;;;;;;;;;;;1.70;99.90;;;;;;5066502;28;19923;-64
2023/02/16 01:58:54;;;;;;;;;;;1.60;99.90;;;;;;5078421;28;20384;-64
2023/02/16 02:01:32;;;;;;;;;;;1.60;99.90;;;;;;5068625;28;19975;-64
2023/02/16 02:06:41;;;;;;;;;;;1.60;99.90;;;;;;5064390;28;19928;-65
2023/02/16 02:09:10;;;;;;;;;;;1.70;99.90;;;;;;5067323;28;19912;-65
2023/02/16 02:11:39;;;;;;;;;;;1.80;99.90;;;;;;5065843;28;19913;-65
2023/02/16 02:14:07;;;;;;;;;;;1.80;99.90;;;;;;5075210;28;19913;-65
2023/02/16 02:16:33;;;;;;;;;;;1.90;99.90;;;;;;5063994;28;19912;-64
2023/02/16 02:18:58;;;;;;;;;;;1.90;99.90;;;;;;5075677;28;20428;-63
2023/02/16 02:24:46;;;;;;;;;;;1.70;99.90;;;;;;5065873;28;19967;-65
2023/02/16 02:27:24;;;;;;;;;;;1.60;99.90;;;;;;5079397;28;21246;-65
2023/02/16 02:29:55;;;;;;;;;;;1.50;99.90;;;;;;5066860;28;19938;-66
2023/02/16 02:32:21;;;;;;;;;;;1.30;99.90;;;;;;5068830;28;19927;-66
2023/02/16 02:35:02;;;;;;;;;;;1.30;99.90;;;;;;5071766;28;19913;-65
2023/02/16 02:37:27;;;;;;;;;;;1.30;99.90;;;;;;5067548;28;20002;-65
2023/02/16 02:39:59;;;;;;;;;;;1.30;99.90;;;;;;5065929;28;19940;-65
2023/02/16 02:42:32;;;;;;;;;;;1.30;99.90;;;;;;5071424;28;20451;-65
2023/02/16 02:45:07;;;;;;;;;;;1.30;99.90;;;;;;5077637;28;19928;-65
2023/02/16 02:47:37;;;;;;;;;;;1.20;99.90;;;;;;5074417;28;20400;-64
2023/02/16 02:50:02;;;;;;;;;;;1.30;99.90;;;;;;5071469;28;20387;-64
2023/02/16 02:52:28;;;;;;;;;;;1.30;99.90;;;;;;5078406;28;19919;-64
2023/02/16 03:00:42;;;;;;;;;;;1.20;99.90;;;;;;5066404;28;20405;-64
2023/02/16 03:03:12;;;;;;;;;;;1.10;99.90;;;;;;5063426;28;19913;-64
2023/02/16 03:05:40;;;;;;;;;;;1.20;99.90;;;;;;5071394;28;20293;-63
2023/02/16 03:08:15;;;;;;;;;;;1.20;99.90;;;;;;5065395;28;19920;-64
2023/02/16 03:13:29;;;;;;;;;;;1.30;99.90;;;;;;5071784;28;19967;-64
2023/02/16 03:15:55;;;;;;;;;;;1.40;99.90;;;;;;5069511;28;19935;-64
2023/02/16 03:29:21;;;;;;;;;;;1.40;99.90;;;;;;5056810;28;19946;-64
2023/02/16 03:31:47;;;;;;;;;;;1.40;99.90;;;;;;5063729;28;20396;-66
2023/02/16 03:34:13;;;;;;;;;;;1.50;99.90;;;;;;5071652;28;20381;-64
2023/02/16 03:36:40;;;;;;;;;;;1.60;99.90;;;;;;5065822;28;20341;-64
2023/02/16 03:39:06;;;;;;;;;;;1.40;99.90;;;;;;5069021;28;19927;-63
2023/02/16 03:41:44;;;;;;;;;;;1.30;99.90;;;;;;5072059;28;20047;-63
2023/02/16 03:44:09;;;;;;;;;;;1.40;99.90;;;;;;5072209;28;20006;-64
2023/02/16 03:46:35;;;;;;;;;;;1.30;99.90;;;;;;5068069;28;19972;-64
2023/02/16 03:49:00;;;;;;;;;;;1.30;99.90;;;;;;5069485;28;19991;-64
2023/02/16 03:51:26;;;;;;;;;;;1.10;99.90;;;;;;5058488;28;19920;-64
2023/02/16 03:53:51;;;;;;;;;;;1.10;99.90;;;;;;5060906;28;20922;-64
2023/02/16 03:56:17;;;;;;;;;;;1.00;99.90;;;;;;5070772;28;21707;-64
2023/02/16 03:58:42;;;;;;;;;;;1.10;99.90;;;;;;5068841;28;19912;-63
2023/02/16 04:01:08;;;;;;;;;;;1.10;99.90;;;;;;5065231;28;19912;-64
2023/02/16 04:03:33;;;;;;;;;;;1.10;99.90;;;;;;5050860;28;20390;-63
2023/02/16 04:05:59;;;;;;;;;;;1.10;99.90;;;;;;5065660;28;19920;-64
2023/02/16 04:08:24;;;;;;;;;;;1.20;99.90;;;;;;5070564;28;19916;-64
2023/02/16 04:10:50;;;;;;;;;;;1.10;99.90;;;;;;5070078;28;20002;-64
2023/02/16 04:13:15;;;;;;;;;;;1.00;99.90;;;;;;5065256;28;19912;-64
2023/02/16 04:15:41;;;;;;;;;;;1.10;99.90;;;;;;5063699;28;20030;-63
2023/02/16 04:18:06;;;;;;;;;;;1.20;99.90;;;;;;5064264;28;20362;-64
2023/02/16 04:20:33;;;;;;;;;;;1.20;99.90;;;;;;5068161;28;20290;-64
2023/02/16 04:22:58;;;;;;;;;;;1.20;99.90;;;;;;5067167;28;19912;-63
2023/02/16 04:25:24;;;;;;;;;;;1.20;99.90;;;;;;5065316;28;20420;-65
2023/02/16 04:27:50;;;;;;;;;;;1.30;99.90;;;;;;5058394;28;20008;-64
2023/02/16 04:30:17;;;;;;;;;;;1.40;99.90;;;;;;5074598;28;19919;-64
2023/02/16 04:32:43;;;;;;;;;;;1.30;99.90;;;;;;5070406;28;19918;-64
2023/02/16 04:35:08;;;;;;;;;;;1.30;99.90;;;;;;5067855;28;19912;-65
2023/02/16 04:37:34;;;;;;;;;;;1.20;99.90;;;;;;5061968;28;20011;-64
2023/02/16 04:39:59;;;;;;;;;;;1.20;99.90;;;;;;5064659;28;19920;-66
2023/02/16 04:42:25;;;;;;;;;;;1.20;99.90;;;;;;5059619;28;19994;-65
2023/02/16 04:44:50;;;;;;;;;;;1.20;99.90;;;;;;5061501;28;19964;-65
2023/02/16 04:47:16;;;;;;;;;;;1.10;99.90;;;;;;5067186;28;20393;-66
2023/02/16 04:49:41;;;;;;;;;;;1.10;99.90;;;;;;5066283;28;20468;-64
2023/02/16 04:52:07;;;;;;;;;;;0.90;99.90;;;;;;5065845;28;19955;-65
2023/02/16 04:54:33;;;;;;;;;;;1.00;99.90;;;;;;5066009;28;19928;-66
2023/02/16 04:56:59;;;;;;;;;;;1.00;99.90;;;;;;5069954;28;20400;-65
2023/02/16 04:59:24;;;;;;;;;;;1.00;99.90;;;;;;5065088;28;19994;-65
2023/02/16 05:01:50;;;;;;;;;;;1.00;99.90;;;;;;5065925;28;20011;-64
2023/02/16 05:04:15;;;;;;;;;;;1.00;99.90;;;;;;5072943;28;19920;-66
2023/02/16 05:06:41;;;;;;;;;;;1.10;99.90;;;;;;5064810;28;19975;-65
2023/02/16 05:09:06;;;;;;;;;;;1.10;99.90;;;;;;5071247;28;20396;-65
2023/02/16 05:17:05;;;;;;;;;;;1.10;99.90;;;;;;5072115;28;19920;-64
2023/02/16 05:19:30;;;;;;;;;;;1.10;99.90;;;;;;5066403;28;19912;-65
2023/02/16 05:21:56;;;;;;;;;;;1.20;99.90;;;;;;5063882;28;20008;-65
2023/02/16 05:24:21;;;;;;;;;;;1.20;99.90;;;;;;5072046;28;20428;-65
2023/02/16 05:26:47;;;;;;;;;;;1.20;99.90;;;;;;5064969;28;20297;-66
2023/02/16 05:29:12;;;;;;;;;;;1.20;99.90;;;;;;5064122;28;19935;-66
2023/02/16 05:31:38;;;;;;;;;;;1.30;99.90;;;;;;5069107;28;19955;-65
2023/02/16 05:34:03;;;;;;;;;;;1.30;99.90;;;;;;5073672;28;20389;-65
2023/02/16 05:36:28;;;;;;;;;;;1.20;99.90;;;;;;5067364;28;19920;-65
2023/02/16 05:38:54;;;;;;;;;;;1.30;99.90;;;;;;5065200;28;20425;-65
2023/02/16 05:41:22;;;;;;;;;;;1.30;99.90;;;;;;5069658;28;19952;-63
2023/02/16 05:43:49;;;;;;;;;;;1.30;99.90;;;;;;5066667;28;20046;-66
2023/02/16 05:46:14;;;;;;;;;;;1.30;99.90;;;;;;5064409;28;19920;-64
2023/02/16 05:48:40;;;;;;;;;;;1.30;99.90;;;;;;5063484;28;19934;-65
2023/02/16 05:51:05;;;;;;;;;;;1.30;99.90;;;;;;5065804;28;19916;-65
2023/02/16 05:53:31;;;;;;;;;;;1.20;99.90;;;;;;5060769;28;20003;-65
2023/02/16 05:55:56;;;;;;;;;;;1.10;99.90;;;;;;5061458;28;19958;-65
2023/02/16 05:58:21;;;;;;;;;;;1.10;99.90;;;;;;5075359;28;19927;-66
2023/02/16 06:00:47;;;;;;;;;;;1.10;99.90;;;;;;5066197;28;19924;-65
2023/02/16 06:03:12;;;;;;;;;;;1.20;99.90;;;;;;5069435;28;19920;-66
2023/02/16 06:05:38;;;;;;;;;;;1.20;99.90;;;;;;5067811;28;19917;-62
2023/02/16 06:08:03;;;;;;;;;;;1.20;99.90;;;;;;5066997;28;19913;-64
2023/02/16 06:10:29;;;;;;;;;;;1.20;99.90;;;;;;5070349;28;19912;-63
2023/02/16 06:12:54;;;;;;;;;;;1.20;99.90;;;;;;5061913;28;20428;-59
2023/02/16 06:15:20;;;;;;;;;;;1.30;99.90;;;;;;5066968;28;19959;-64
2023/02/16 06:17:45;;;;;;;;;;;1.30;99.90;;;;;;5062052;28;19920;-64
2023/02/16 06:20:11;;;;;;;;;;;1.30;99.90;;;;;;5066517;28;19927;-63
2023/02/16 06:22:36;;;;;;;;;;;1.40;99.90;;;;;;5060492;28;19928;-62
2023/02/16 06:25:02;;;;;;;;;;;1.50;99.90;;;;;;5077032;23;20015;-84
2023/02/16 06:27:28;;;;;;;;;;;1.50;99.90;;;;;;5065784;28;20007;-83
2023/02/16 06:29:53;;;;;;;;;;;1.60;99.90;;;;;;5045308;28;19978;-84
2023/02/16 06:32:19;;;;;;;;;;;1.70;99.90;;;;;;5065008;28;19952;-83
2023/02/16 06:34:45;;;;;;;;;;;1.80;99.90;;;;;;5048912;28;19965;-82
2023/02/16 06:37:10;;;;;;;;;;;1.80;99.90;;;;;;5050235;28;19949;-84
2023/02/16 06:39:36;;;;;;;;;;;1.80;99.90;;;;;;5045012;28;19917;-83
2023/02/16 06:42:01;;;;;;;;;;;1.90;99.90;;;;;;5028069;28;19913;-84
2023/02/16 06:44:27;;;;;;;;;;;2.00;99.90;;;;;;5047605;28;19979;-82
2023/02/16 06:46:52;;;;;;;;;;;2.00;99.90;;;;;;5026306;28;19996;-81
2023/02/16 06:49:19;;;;;;;;;;;2.00;99.90;;;;;;5049876;28;19912;-81
2023/02/16 06:51:45;;;;;;;;;;;2.00;99.90;;;;;;5030126;28;19965;-82
2023/02/16 06:54:10;;;;;;;;;;;2.10;99.90;;;;;;5030380;28;20447;-84
2023/02/16 06:56:36;;;;;;;;;;;2.20;99.90;;;;;;5043368;28;19983;-82
2023/02/16 06:59:02;;;;;;;;;;;2.30;99.90;;;;;;5042750;28;19927;-82
2023/02/16 07:01:27;;;;;;;;;;;2.30;99.90;;;;;;5046894;28;19913;-80
2023/02/16 07:03:54;;;;;;;;;;;2.40;99.90;;;;;;5031937;28;19925;-83
2023/02/16 07:06:20;;;;;;;;;;;2.40;99.90;;;;;;5041352;28;19917;-83
2023/02/16 07:08:45;;;;;;;;;;;2.40;99.90;;;;;;5026494;28;19917;-81
2023/02/16 07:11:11;;;;;;;;;;;2.50;99.90;;;;;;5039955;28;19937;-84
2023/02/16 07:13:37;;;;;;;;;;;2.60;99.90;;;;;;5031123;28;19913;-82
2023/02/16 07:16:06;;;;;;;;;;;2.70;99.90;;;;;;5034869;28;20003;-80
2023/02/16 07:18:32;;;;;;;;;;;2.70;99.90;;;;;;5048403;28;19914;-83
2023/02/16 07:20:57;;;;;;;;;;;2.80;99.90;;;;;;5041410;28;19913;-83
2023/02/16 07:23:23;;;;;;;;;;;2.80;99.90;;;;;;5049897;28;19968;-81
2023/02/16 07:25:48;;;;;;;;;;;2.90;99.90;;;;;;5047325;28;20390;-82
2023/02/16 07:28:14;;;;;;;;;;;2.90;99.90;;;;;;5028129;28;19904;-83
2023/02/16 07:30:39;;;;;;;;;;;3.00;99.90;;;;;;5045244;28;19913;-86
2023/02/16 07:33:08;;;;;;;;;;;3.10;99.90;;;;;;5046992;28;19916;-83
2023/02/16 07:35:33;;;;;;;;;;;3.20;99.90;;;;;;5052442;28;19917;-81
2023/02/16 07:37:59;;;;;;;;;;;3.20;99.90;;;;;;5027032;28;19921;-82
2023/02/16 07:40:25;;;;;;;;;;;3.20;99.90;;;;;;5042647;28;20393;-80
2023/02/16 07:42:50;;;;;;;;;;;3.20;99.90;;;;;;5040410;28;19924;-83
2023/02/16 07:45:16;;;;;;;;;;;3.30;99.90;;;;;;5027708;28;19929;-82
2023/02/16 07:47:41;;;;;;;;;;;3.30;99.90;;;;;;5027942;28;19930;-82
2023/02/16 07:50:07;;;;;;;;;;;3.40;99.90;;;;;;5044731;28;19916;-80
2023/02/16 07:52:33;;;;;;;;;;;3.40;99.90;;;;;;5029978;28;19963;-82
2023/02/16 07:54:58;;;;;;;;;;;3.40;99.90;;;;;;5026261;28;21517;-83
2023/02/16 07:57:24;;;;;;;;;;;3.40;99.90;;;;;;5026543;28;19914;-82
2023/02/16 07:59:51;;;;;;;;;;;3.50;99.90;;;;;;5028482;28;19913;-81
2023/02/16 08:02:18;;;;;;;;;;;3.60;99.90;;;;;;5037200;28;19913;-82
2023/02/16 08:04:44;;;;;;;;;;;3.60;99.90;;;;;;5028520;28;19913;-83
2023/02/16 08:07:14;;;;;;;;;;;3.70;99.90;;;;;;5037355;28;20453;-84
2023/02/16 08:09:39;;;;;;;;;;;3.70;99.90;;;;;;5033524;28;19909;-81
2023/02/16 08:12:09;;;;;;;;;;;3.70;99.90;;;;;;5051695;28;19989;-83
2023/02/16 08:14:34;;;;;;;;;;;3.80;99.90;;;;;;5033206;28;19909;-82
2023/02/16 08:17:00;;;;;;;;;;;3.90;99.90;;;;;;5027273;28;19920;-83
2023/02/16 08:19:28;;;;;;;;;;;3.90;99.90;;;;;;5030245;28;19916;-83
2023/02/16 08:21:53;;;;;;;;;;;4.00;99.90;;;;;;5030292;28;19944;-81
2023/02/16 08:24:19;;;;;;;;;;;4.00;99.90;;;;;;5030252;28;19921;-83
2023/02/16 08:26:48;;;;;;;;;;;4.00;99.90;;;;;;5038141;28;19913;-81
2023/02/16 08:29:16;;;;;;;;;;;4.00;99.90;;;;;;5031605;28;19940;-81
2023/02/16 08:31:42;;;;;;;;;;;4.10;99.90;;;;;;5046196;28;19914;-81
2023/02/16 08:34:08;;;;;;;;;;;4.10;99.90;;;;;;5045242;28;19917;-81
2023/02/16 08:36:35;;;;;;;;;;;4.10;99.90;;;;;;5028783;28;20031;-80
2023/02/16 08:39:03;;;;;;;;;;;4.10;99.90;;;;;;5029142;28;19940;-82
2023/02/16 08:41:31;;;;;;;;;;;4.20;99.90;;;;;;5050553;28;19934;-81
2023/02/16 08:43:56;;;;;;;;;;;4.20;99.90;;;;;;5034839;28;19913;-82
2023/02/16 08:46:22;;;;;;;;;;;4.30;99.90;;;;;;5047160;28;20191;-82
2023/02/16 08:48:47;;;;;;;;;;;4.40;99.90;;;;;;5019830;28;19940;-82
2023/02/16 08:51:17;;;;;;;;;;;4.50;99.90;;;;;;5031335;28;19944;-81
2023/02/16 08:53:43;;;;;;;;;;;4.50;99.90;;;;;;5036379;28;19959;-81
2023/02/16 08:56:11;;;;;;;;;;;4.60;99.90;;;;;;5044167;28;20518;-81
2023/02/16 08:58:37;;;;;;;;;;;4.70;99.90;;;;;;5028553;28;19935;-82
2023/02/16 09:01:07;;;;;;;;;;;4.70;99.90;;;;;;5033327;28;19953;-81
2023/02/16 09:03:37;;;;;;;;;;;4.70;99.90;;;;;;5022636;28;19913;-81
2023/02/16 09:06:04;;;;;;;;;;;4.80;99.90;;;;;;5027490;28;19917;-81
2023/02/16 09:08:30;;;;;;;;;;;4.90;99.90;;;;;;5032306;28;19909;-83
2023/02/16 09:11:00;;;;;;;;;;;4.90;99.90;;;;;;5043933;28;19945;-83
2023/02/16 09:13:25;;;;;;;;;;;5.00;99.90;;;;;;5027939;28;20020;-81
2023/02/16 09:15:51;;;;;;;;;;;5.00;99.90;;;;;;5041737;28;19924;-81
2023/02/16 09:18:17;;;;;;;;;;;5.10;99.90;;;;;;5039913;28;19924;-81
2023/02/16 09:20:43;;;;;;;;;;;5.10;99.90;;;;;;5043110;28;19921;-82
2023/02/16 09:23:09;;;;;;;;;;;5.20;99.90;;;;;;5030119;28;19914;-81
2023/02/16 09:25:39;;;;;;;;;;;5.30;99.90;;;;;;5043520;28;19928;-81
2023/02/16 09:28:05;;;;;;;;;;;5.40;99.90;;;;;;5041256;28;20328;-82
2023/02/16 09:30:31;;;;;;;;;;;5.60;99.90;;;;;;5040166;28;19929;-82
2023/02/16 09:32:57;;;;;;;;;;;5.80;99.90;;;;;;5041441;28;20174;-83
2023/02/16 09:35:23;;;;;;;;;;;6.00;99.90;;;;;;5030469;28;19921;-82
2023/02/16 09:37:48;;;;;;;;;;;6.20;99.90;;;;;;5037331;28;19976;-83
2023/02/16 09:40:14;;;;;;;;;;;6.50;99.90;;;;;;5033099;28;19913;-81
2023/02/16 09:42:43;;;;;;;;;;;6.60;99.90;;;;;;5049656;28;19933;-86
2023/02/16 09:45:14;;;;;;;;;;;6.80;99.90;;;;;;5029344;28;19999;-85
2023/02/16 09:47:41;;;;;;;;;;;7.10;99.90;;;;;;5030606;28;19916;-84
2023/02/16 09:50:19;;;;;;;;;;;7.30;99.90;;;;;;5025655;28;19958;-87
2023/02/16 09:52:59;;;;;;;;;;;7.50;99.90;;;;;;5020857;28;20436;-86
2023/02/16 09:55:31;;;;;;;;;;;7.70;99.90;;;;;;5025751;28;19965;-84
2023/02/16 09:58:11;;;;;;;;;;;7.60;99.90;;;;;;5034208;28;19936;-86
2023/02/16 10:00:39;;;;;;;;;;;7.80;99.90;;;;;;5041264;28;19944;-86
2023/02/16 10:03:05;;;;;;;;;;;7.90;99.90;;;;;;5032101;28;20502;-85
2023/02/16 10:05:31;;;;;;;;;;;7.90;99.90;;;;;;5039541;28;19921;-86
2023/02/16 10:08:12;;;;;;;;;;;8.00;99.90;;;;;;5022917;28;19913;-86
2023/02/16 10:10:41;;;;;;;;;;;8.10;99.90;;;;;;5042602;28;20378;-86
2023/02/16 10:13:11;;;;;;;;;;;8.10;99.90;;;;;;5017713;28;19917;-86
2023/02/16 10:15:39;;;;;;;;;;;8.10;99.90;;;;;;5043225;28;19913;-86
2023/02/16 10:18:15;;;;;;;;;;;8.00;99.90;;;;;;5035268;28;19923;-84
2023/02/16 10:20:42;;;;;;;;;;;8.10;99.90;;;;;;5025835;28;20412;-86
2023/02/16 10:23:20;;;;;;;;;;;8.10;99.90;;;;;;5023827;28;19909;-85
2023/02/16 10:25:53;;;;;;;;;;;8.20;99.90;;;;;;5024864;28;19986;-87
2023/02/16 10:28:37;;;;;;;;;;;8.20;99.90;;;;;;5029996;28;19960;-86
2023/02/16 10:31:09;;;;;;;;;;;8.30;99.90;;;;;;5042304;28;19913;-87
2023/02/16 10:33:41;;;;;;;;;;;8.30;99.90;;;;;;5040666;28;19924;-85
2023/02/16 10:36:15;;;;;;;;;;;8.30;99.90;;;;;;5019790;28;19913;-87
2023/02/16 10:38:50;;;;;;;;;;;8.30;99.90;;;;;;5037817;28;19924;-85
2023/02/16 10:41:15;;;;;;;;;;;8.40;99.90;;;;;;5038640;28;19927;-85
2023/02/16 10:43:43;;;;;;;;;;;8.40;99.90;;;;;;5035269;28;19996;-84
2023/02/16 10:46:28;;;;;;;;;;;8.50;99.90;;;;;;5041271;28;20372;-87
2023/02/16 10:48:54;;;;;;;;;;;8.50;99.90;;;;;;5020293;28;19996;-84
2023/02/16 10:51:22;;;;;;;;;;;8.50;99.90;;;;;;5017680;28;20378;-85
2023/02/16 10:53:53;;;;;;;;;;;8.60;99.90;;;;;;5022581;28;19957;-84
2023/02/16 10:56:34;;;;;;;;;;;8.70;99.90;;;;;;5041959;28;19913;-83
2023/02/16 10:59:01;;;;;;;;;;;8.80;99.90;;;;;;5020011;28;20024;-83
2023/02/16 11:01:37;;;;;;;;;;;8.90;99.90;;;;;;5018268;28;19936;-83
2023/02/16 11:04:02;;;;;;;;;;;9.00;99.90;;;;;;5020687;28;19913;-83
2023/02/16 11:06:28;;;;;;;;;;;9.10;99.90;;;;;;5025076;28;19917;-84
2023/02/16 11:08:59;;;;;;;;;;;9.20;99.90;;;;;;5022615;28;19996;-83
2023/02/16 11:11:28;;;;;;;;;;;9.20;99.90;;;;;;5042702;28;19928;-82
2023/02/16 11:13:58;;;;;;;;;;;9.20;99.90;;;;;;5038898;28;19917;-84
2023/02/16 11:16:24;;;;;;;;;;;9.20;99.90;;;;;;5034694;28;19917;-84
2023/02/16 11:19:10;;;;;;;;;;;9.10;99.90;;;;;;5014427;28;20338;-84
2023/02/16 11:21:43;;;;;;;;;;;9.20;99.90;;;;;;5031359;28;19917;-84
2023/02/16 11:24:10;;;;;;;;;;;9.20;99.90;;;;;;5041938;28;20304;-84
2023/02/16 11:26:37;;;;;;;;;;;9.20;99.90;;;;;;5039196;28;19924;-85
2023/02/16 11:29:16;;;;;;;;;;;9.20;99.90;;;;;;5020565;28;19913;-86
2023/02/16 11:31:41;;;;;;;;;;;9.30;99.90;;;;;;5019095;28;20285;-85
2023/02/16 11:34:07;;;;;;;;;;;9.30;99.90;;;;;;5034333;28;19901;-83
2023/02/16 11:36:38;;;;;;;;;;;9.40;99.90;;;;;;5017983;28;20425;-86
2023/02/16 11:39:06;;;;;;;;;;;9.50;99.90;;;;;;5025655;28;19928;-86
2023/02/16 11:41:32;;;;;;;;;;;9.60;99.90;;;;;;5042241;28;19937;-84
2023/02/16 11:43:59;;;;;;;;;;;9.70;99.90;;;;;;5022707;28;20058;-86
2023/02/16 11:46:25;;;;;;;;;;;9.70;99.90;;;;;;5024160;28;20015;-85
2023/02/16 11:48:50;;;;;;;;;;;9.60;99.90;;;;;;5026626;28;19961;-86
2023/02/16 11:51:27;;;;;;;;;;;9.60;99.90;;;;;;5021134;28;19920;-85
2023/02/16 11:53:58;;;;;;;;;;;9.70;99.90;;;;;;5023886;28;19994;-84
2023/02/16 11:56:26;;;;;;;;;;;9.80;99.90;;;;;;5023391;28;19916;-87
2023/02/16 11:59:04;;;;;;;;;;;9.80;99.90;;;;;;5017767;28;19920;-85
2023/02/16 12:01:50;;;;;;;;;;;9.90;99.90;;;;;;5021149;28;19909;-85
2023/02/16 12:04:33;;;;;;;;;;;9.90;99.90;;;;;;5011559;28;19992;-85
2023/02/16 12:06:59;;;;;;;;;;;9.90;99.90;;;;;;5037608;28;20007;-86
2023/02/16 12:09:30;;;;;;;;;;;9.90;99.90;;;;;;5023391;28;20388;-85
2023/02/16 12:12:11;;;;;;;;;;;9.90;99.90;;;;;;5035806;28;20000;-87
2023/02/16 12:14:40;;;;;;;;;;;9.90;99.90;;;;;;5034577;28;19913;-86
2023/02/16 12:17:16;;;;;;;;;;;9.80;99.90;;;;;;5034488;28;20290;-86
2023/02/16 12:19:47;;;;;;;;;;;9.80;99.90;;;;;;5023475;28;19916;-86
2023/02/16 12:22:25;;;;;;;;;;;9.80;99.90;;;;;;5037054;28;19945;-86
2023/02/16 12:24:56;;;;;;;;;;;9.80;99.90;;;;;;5022034;28;19917;-87
2023/02/16 12:27:42;;;;;;;;;;;9.80;99.90;;;;;;5037406;28;19913;-86
2023/02/16 12:30:10;;;;;;;;;;;9.80;99.90;;;;;;5030462;28;19913;-88
2023/02/16 12:32:50;;;;;;;;;;;9.80;99.90;;;;;;5037877;28;20011;-86
2023/02/16 12:35:35;;;;;;;;;;;9.90;99.90;;;;;;5033248;28;20350;-87
2023/02/16 12:38:26;;;;;;;;;;;9.90;99.90;;;;;;5023397;28;19914;-86
2023/02/16 12:40:51;;;;;;;;;;;9.90;99.90;;;;;;5029323;28;19924;-86
2023/02/16 12:43:30;;;;;;;;;;;10.00;99.90;;;;;;5022390;28;19909;-86
2023/02/16 12:45:57;;;;;;;;;;;10.00;99.90;;;;;;5020517;28;19917;-86
2023/02/16 12:48:39;;;;;;;;;;;9.90;99.90;;;;;;5016366;28;19909;-84
2023/02/16 12:51:09;;;;;;;;;;;10.00;99.90;;;;;;5010690;28;19921;-85
2023/02/16 12:53:49;;;;;;;;;;;10.00;99.90;;;;;;5037342;28;20458;-85
2023/02/16 12:56:17;;;;;;;;;;;10.00;99.90;;;;;;5017646;28;19940;-86
2023/02/16 12:58:45;;;;;;;;;;;10.00;99.90;;;;;;5032449;28;20702;-86
2023/02/16 13:01:14;;;;;;;;;;;10.00;99.90;;;;;;5022550;28;19960;-86
2023/02/16 13:03:48;;;;;;;;;;;10.00;99.90;;;;;;5036761;28;19920;-86
2023/02/16 13:06:20;;;;;;;;;;;10.00;99.90;;;;;;5019727;28;19961;-85
2023/02/16 13:08:51;;;;;;;;;;;10.00;99.90;;;;;;5028993;28;20285;-86
2023/02/16 13:11:23;;;;;;;;;;;10.00;99.90;;;;;;5043177;28;19920;-86
2023/02/16 13:13:50;;;;;;;;;;;10.00;99.90;;;;;;5017511;28;19919;-86
2023/02/16 13:16:22;;;;;;;;;;;10.00;99.90;;;;;;5024683;28;19960;-87
2023/02/16 13:18:49;;;;;;;;;;;10.10;99.90;;;;;;5036292;28;19947;-87
2023/02/16 13:21:14;;;;;;;;;;;10.00;99.90;;;;;;5027684;28;19919;-86
2023/02/16 13:23:51;;;;;;;;;;;10.10;99.90;;;;;;5018668;28;19941;-86
2023/02/16 13:26:16;;;;;;;;;;;10.20;99.90;;;;;;5013695;28;19913;-86
2023/02/16 13:28:51;;;;;;;;;;;10.20;99.90;;;;;;5025094;28;19959;-86
2023/02/16 13:31:26;;;;;;;;;;;10.30;99.90;;;;;;5018507;28;19913;-86
2023/02/16 13:34:04;;;;;;;;;;;10.40;99.90;;;;;;5030396;28;19917;-85
2023/02/16 13:36:48;;;;;;;;;;;10.50;99.90;;;;;;5024649;28;19909;-87
2023/02/16 13:39:22;;;;;;;;;;;10.60;99.90;;;;;;5033810;28;19917;-86
2023/02/16 13:42:03;;;;;;;;;;;10.70;99.90;;;;;;5022742;28;19913;-87
2023/02/16 13:44:40;;;;;;;;;;;10.70;99.90;;;;;;5022324;28;19920;-86
2023/02/16 13:47:09;;;;;;;;;;;10.70;99.90;;;;;;5040649;28;19924;-86
2023/02/16 13:49:39;;;;;;;;;;;10.80;99.90;;;;;;5024666;28;19959;-86
2023/02/16 13:52:06;;;;;;;;;;;10.90;99.90;;;;;;5024102;28;19935;-86
2023/02/16 13:54:36;;;;;;;;;;;11.00;99.90;;;;;;5031767;28;19912;-86
2023/02/16 13:57:03;;;;;;;;;;;11.10;99.90;;;;;;5039114;28;20366;-86
2023/02/16 13:59:28;;;;;;;;;;;11.20;99.90;;;;;;5027774;28;20377;-86
2023/02/16 14:01:55;;;;;;;;;;;11.40;99.90;;;;;;5018023;28;19939;-85
2023/02/16 14:04:21;;;;;;;;;;;11.80;99.90;;;;;;5023881;28;20720;-86
2023/02/16 14:06:47;;;;;;;;;;;12.10;99.90;;;;;;5033906;28;19914;-86
2023/02/16 14:09:12;;;;;;;;;;;12.30;99.90;;;;;;5040015;28;19913;-86
2023/02/16 14:11:51;;;;;;;;;;;12.40;99.90;;;;;;5024634;28;19919;-86
2023/02/16 14:14:26;;;;;;;;;;;12.60;99.90;;;;;;5026283;28;19944;-86
2023/02/16 14:16:53;;;;;;;;;;;12.90;99.90;;;;;;5024408;28;19920;-86
2023/02/16 14:19:23;;;;;;;;;;;13.10;99.90;;;;;;5023867;28;19913;-86
2023/02/16 14:21:49;;;;;;;;;;;13.20;99.90;;;;;;5022484;28;20505;-86
2023/02/16 14:24:23;;;;;;;;;;;13.40;99.90;;;;;;5023166;28;19924;-86
2023/02/16 14:26:51;;;;;;;;;;;13.30;99.90;;;;;;5022324;28;19921;-86
2023/02/16 14:29:18;;;;;;;;;;;13.30;99.90;;;;;;5028362;28;20369;-87
2023/02/16 14:31:47;;;;;;;;;;;13.30;99.90;;;;;;5033180;28;19906;-86
2023/02/16 14:34:23;;;;;;;;;;;13.30;99.90;;;;;;5030310;28;20000;-86
2023/02/16 14:37:07;;;;;;;;;;;13.40;99.90;;;;;;5041735;28;19916;-86
2023/02/16 14:39:35;;;;;;;;;;;13.40;99.90;;;;;;5039139;28;19981;-87
2023/02/16 14:42:07;;;;;;;;;;;13.50;99.90;;;;;;5022028;28;19917;-86
2023/02/16 14:44:52;;;;;;;;;;;13.60;99.90;;;;;;5022835;28;19913;-87
2023/02/16 14:47:20;;;;;;;;;;;13.70;99.90;;;;;;5011887;28;19927;-86
2023/02/16 14:50:04;;;;;;;;;;;13.70;99.90;;;;;;5049315;28;19939;-86
2023/02/16 14:52:38;;;;;;;;;;;13.50;99.90;;;;;;5042888;28;19973;-86
2023/02/16 14:55:06;;;;;;;;;;;13.60;99.90;;;;;;5029204;28;19954;-86
2023/02/16 14:57:36;;;;;;;;;;;13.50;99.90;;;;;;5025761;28;19968;-87
2023/02/16 15:00:01;;;;;;;;;;;13.50;99.90;;;;;;5044070;28;19947;-86
2023/02/16 15:02:50;;;;;;;;;;;13.40;99.90;;;;;;5026916;28;19913;-86
2023/02/16 15:05:23;;;;;;;;;;;13.40;99.90;;;;;;5022632;28;20356;-86
2023/02/16 15:07:56;;;;;;;;;;;13.40;99.90;;;;;;5023298;28;19920;-86
2023/02/16 15:10:25;;;;;;;;;;;13.40;99.90;;;;;;5032065;28;20067;-86
2023/02/16 15:12:52;;;;;;;;;;;13.50;99.90;;;;;;5022254;28;19913;-86
2023/02/16 15:15:19;;;;;;;;;;;13.50;99.90;;;;;;5014230;28;19925;-86
2023/02/16 15:17:46;;;;;;;;;;;13.50;99.90;;;;;;5034033;28;19893;-86